createdAt,value
2019-01-27T00:01:18.033Z,-4.00
2019-01-27T00:03:46.389Z,-4.00
2019-01-27T00:06:14.755Z,-4.00
2019-01-27T00:08:43.378Z,-4.00
2019-01-27T00:11:11.771Z,-4.00
2019-01-27T00:13:40.192Z,-4.00
2019-01-27T00:16:08.807Z,-4.00
2019-01-27T00:18:37.223Z,-4.00
2019-01-27T00:21:05.612Z,-4.00
2019-01-27T00:23:34.041Z,-4.00
2019-01-27T00:26:02.480Z,-3.90
2019-01-27T00:28:30.857Z,-3.90
2019-01-27T00:30:59.362Z,-3.90
2019-01-27T00:33:27.738Z,-3.90
2019-01-27T00:35:56.059Z,-3.90
2019-01-27T00:38:24.812Z,-4.00
2019-01-27T00:40:53.268Z,-4.00
2019-01-27T00:43:21.606Z,-4.00
2019-01-27T00:45:49.954Z,-4.10
2019-01-27T00:48:18.376Z,-4.10
2019-01-27T00:50:46.711Z,-4.10
2019-01-27T00:53:15.081Z,-4.10
2019-01-27T00:55:43.469Z,-4.20
2019-01-27T00:58:11.841Z,-4.20
2019-01-27T01:00:40.577Z,-4.30
2019-01-27T01:03:08.938Z,-4.30
2019-01-27T01:05:37.278Z,-4.40
2019-01-27T01:08:07.578Z,-4.50
2019-01-27T01:10:35.961Z,-4.60
2019-01-27T01:13:05.188Z,-4.70
2019-01-27T01:15:33.691Z,-4.70
2019-01-27T01:18:02.212Z,-4.80
2019-01-27T01:20:30.575Z,-4.90
2019-01-27T01:22:59.220Z,-5.00
2019-01-27T01:25:27.561Z,-5.00
2019-01-27T01:27:55.942Z,-5.10
2019-01-27T01:30:26.602Z,-5.10
2019-01-27T01:32:55.271Z,-5.10
2019-01-27T01:35:23.594Z,-5.20
2019-01-27T01:37:52.059Z,-5.30
2019-01-27T01:40:20.542Z,-5.30
2019-01-27T01:42:49.122Z,-5.30
2019-01-27T01:45:21.578Z,-5.30
2019-01-27T01:47:50.010Z,-5.40
2019-01-27T01:50:18.546Z,-5.40
2019-01-27T01:52:46.939Z,-5.30
2019-01-27T01:55:15.622Z,-5.40
2019-01-27T01:57:43.994Z,-5.40
2019-01-27T02:00:15.606Z,-5.40
2019-01-27T02:02:44.110Z,-5.50
2019-01-27T02:05:12.812Z,-5.50
2019-01-27T02:07:41.206Z,-5.60
2019-01-27T02:10:10.900Z,-5.70
2019-01-27T02:12:39.254Z,-5.70
2019-01-27T02:16:15.138Z,-5.70
2019-01-27T02:18:43.487Z,-5.70
2019-01-27T02:21:11.824Z,-5.80
2019-01-27T02:23:40.270Z,-5.70
2019-01-27T02:26:09.260Z,-5.80
2019-01-27T02:28:37.609Z,-5.80
2019-01-27T02:31:06.319Z,-5.90
2019-01-27T02:33:34.798Z,-5.90
2019-01-27T02:36:03.387Z,-5.90
2019-01-27T02:38:31.755Z,-5.90
2019-01-27T02:41:00.258Z,-6.00
2019-01-27T02:43:28.587Z,-6.00
2019-01-27T02:45:57.119Z,-6.10
2019-01-27T02:48:25.473Z,-6.20
2019-01-27T02:50:53.852Z,-6.30
2019-01-27T02:53:22.342Z,-6.40
2019-01-27T02:55:50.676Z,-6.50
2019-01-27T02:58:19.298Z,-6.60
2019-01-27T03:00:47.682Z,-6.70
2019-01-27T03:03:16.157Z,-6.70
2019-01-27T03:07:56.535Z,-6.70
2019-01-27T03:10:25.006Z,-6.80
2019-01-27T03:12:53.619Z,-7.10
2019-01-27T03:15:22.376Z,-7.30
2019-01-27T03:17:50.785Z,-7.40
2019-01-27T03:20:19.153Z,-7.40
2019-01-27T03:22:47.561Z,-7.40
2019-01-27T03:25:15.942Z,-7.50
2019-01-27T03:27:44.267Z,-7.60
2019-01-27T03:30:15.730Z,-7.70
2019-01-27T03:32:44.194Z,-7.70
2019-01-27T03:35:12.738Z,-7.80
2019-01-27T03:37:41.153Z,-7.80
2019-01-27T03:40:10.420Z,-7.70
2019-01-27T03:42:39.105Z,-7.70
2019-01-27T03:45:09.469Z,-7.90
2019-01-27T03:47:37.833Z,-7.80
2019-01-27T03:50:08.519Z,-7.90
2019-01-27T03:52:36.948Z,-7.90
2019-01-27T03:55:07.557Z,-8.00
2019-01-27T03:57:36.163Z,-8.00
2019-01-27T04:00:06.393Z,-8.00
2019-01-27T04:02:34.729Z,-7.90
2019-01-27T04:05:03.036Z,-7.90
2019-01-27T04:07:31.427Z,-7.80
2019-01-27T04:10:00.380Z,-7.70
2019-01-27T04:12:28.764Z,-7.80
2019-01-27T04:14:57.115Z,-7.80
2019-01-27T04:17:25.769Z,-7.90
2019-01-27T04:19:54.186Z,-7.90
2019-01-27T04:22:22.702Z,-7.90
2019-01-27T04:24:51.056Z,-8.10
2019-01-27T04:27:19.655Z,-8.20
2019-01-27T04:29:48.106Z,-8.40
2019-01-27T04:32:16.638Z,-8.40
2019-01-27T04:34:45.205Z,-8.50
2019-01-27T04:37:13.894Z,-8.60
2019-01-27T04:39:42.216Z,-8.70
2019-01-27T04:42:10.645Z,-8.80
2019-01-27T04:44:39.337Z,-8.90
2019-01-27T04:47:07.648Z,-9.00
2019-01-27T04:49:36.073Z,-9.10
2019-01-27T04:52:04.488Z,-9.20
2019-01-27T04:54:33.020Z,-9.20
2019-01-27T04:57:01.562Z,-9.20
2019-01-27T04:59:29.881Z,-9.20
2019-01-27T05:01:58.525Z,-9.30
2019-01-27T05:04:32.372Z,-9.40
2019-01-27T05:07:00.987Z,-9.40
2019-01-27T05:09:29.828Z,-9.50
2019-01-27T05:11:58.259Z,-9.60
2019-01-27T05:14:26.827Z,-9.70
2019-01-27T05:16:55.306Z,-9.80
2019-01-27T05:19:23.942Z,-9.80
2019-01-27T05:21:52.367Z,-9.80
2019-01-27T05:24:20.802Z,-9.90
2019-01-27T05:26:49.179Z,-9.90
2019-01-27T05:29:17.528Z,-9.90
2019-01-27T05:31:45.897Z,-9.80
2019-01-27T05:34:14.210Z,-9.40
2019-01-27T05:36:42.594Z,-9.40
2019-01-27T05:39:10.954Z,-9.20
2019-01-27T05:41:39.384Z,-9.00
2019-01-27T05:44:08.225Z,-8.90
2019-01-27T05:46:36.918Z,-8.80
2019-01-27T05:49:05.286Z,-8.80
2019-01-27T05:51:33.756Z,-8.80
2019-01-27T05:54:02.139Z,-8.80
2019-01-27T05:56:30.582Z,-8.90
2019-01-27T05:58:59.094Z,-8.90
2019-01-27T06:01:27.636Z,-8.90
2019-01-27T06:03:56.155Z,-8.90
2019-01-27T06:06:24.660Z,-8.90
2019-01-27T06:08:53.086Z,-8.80
2019-01-27T06:11:21.441Z,-8.80
2019-01-27T06:13:49.805Z,-8.70
2019-01-27T06:16:18.161Z,-8.70
2019-01-27T06:18:46.657Z,-8.70
2019-01-27T06:21:15.085Z,-8.70
2019-01-27T06:23:43.403Z,-8.70
2019-01-27T06:26:11.978Z,-8.70
2019-01-27T06:28:40.404Z,-8.70
2019-01-27T06:31:08.939Z,-8.70
2019-01-27T06:34:16.139Z,-8.70
2019-01-27T06:36:44.858Z,-8.60
2019-01-27T06:39:13.199Z,-8.60
2019-01-27T06:41:41.611Z,-8.60
2019-01-27T06:44:10.263Z,-8.50
2019-01-27T06:46:39.454Z,-8.50
2019-01-27T06:49:08.089Z,-8.50
2019-01-27T06:51:36.779Z,-8.50
2019-01-27T06:54:06.198Z,-8.50
2019-01-27T06:56:34.632Z,-8.40
2019-01-27T06:59:08.264Z,-8.40
2019-01-27T07:01:47.714Z,-8.40
2019-01-27T07:04:21.017Z,-8.40
2019-01-27T07:06:54.483Z,-8.30
2019-01-27T07:09:27.259Z,-8.30
2019-01-27T07:12:01.185Z,-8.20
2019-01-27T07:14:49.955Z,-8.20
2019-01-27T07:17:27.710Z,-8.10
2019-01-27T07:20:03.107Z,-8.10
2019-01-27T07:22:37.514Z,-8.00
2019-01-27T07:25:12.660Z,-8.00
2019-01-27T07:27:51.006Z,-7.90
2019-01-27T07:30:40.587Z,-7.80
2019-01-27T07:33:14.600Z,-7.80
2019-01-27T07:35:48.268Z,-7.70
2019-01-27T07:38:30.839Z,-7.60
2019-01-27T07:41:04.570Z,-7.50
2019-01-27T07:43:39.216Z,-7.50
2019-01-27T07:46:11.791Z,-7.40
2019-01-27T07:48:57.914Z,-7.30
2019-01-27T07:51:47.441Z,-7.20
2019-01-27T07:54:25.003Z,-7.10
2019-01-27T07:56:59.496Z,-7.10
2019-01-27T07:59:40.114Z,-7.00
2019-01-27T08:02:14.092Z,-7.00
2019-01-27T08:04:47.767Z,-6.90
2019-01-27T08:07:53.470Z,-6.90
2019-01-27T08:11:29.597Z,-6.80
2019-01-27T08:14:03.824Z,-6.80
2019-01-27T08:16:36.657Z,-6.60
2019-01-27T08:19:13.770Z,-6.60
2019-01-27T08:21:50.622Z,-6.50
2019-01-27T08:24:26.049Z,-6.40
2019-01-27T08:27:16.641Z,-6.40
2019-01-27T08:29:56.351Z,-6.30
2019-01-27T08:32:30.286Z,-6.30
2019-01-27T08:35:03.696Z,-6.30
2019-01-27T08:37:39.376Z,-6.20
2019-01-27T08:40:19.098Z,-6.10
2019-01-27T08:43:02.657Z,-6.10
2019-01-27T08:45:39.989Z,-6.00
2019-01-27T08:48:08.839Z,-6.00
2019-01-27T08:50:37.676Z,-6.00
2019-01-27T08:53:06.074Z,-5.90
2019-01-27T08:55:34.856Z,-5.90
2019-01-27T08:58:03.244Z,-5.80
2019-01-27T09:00:35.800Z,-5.70
2019-01-27T09:03:09.641Z,-5.60
2019-01-27T09:05:45.303Z,-5.60
2019-01-27T09:08:18.782Z,-5.60
2019-01-27T09:10:56.156Z,-5.60
2019-01-27T09:13:31.815Z,-5.60
2019-01-27T09:16:07.942Z,-5.50
2019-01-27T09:18:40.910Z,-5.40
2019-01-27T09:21:13.817Z,-5.30
2019-01-27T09:23:52.541Z,-5.30
2019-01-27T09:26:30.569Z,-5.30
2019-01-27T09:29:04.149Z,-5.20
2019-01-27T09:32:40.556Z,-5.10
2019-01-27T09:35:16.193Z,-5.00
2019-01-27T09:38:56.534Z,-5.00
2019-01-27T09:41:35.518Z,-4.90
2019-01-27T09:44:09.655Z,-4.90
2019-01-27T09:47:40.479Z,-4.90
2019-01-27T09:52:19.203Z,-4.80
2019-01-27T09:54:59.998Z,-4.60
2019-01-27T09:57:36.890Z,-4.50
2019-01-27T10:00:17.285Z,-4.40
2019-01-27T10:04:53.669Z,-4.50
2019-01-27T10:07:28.557Z,-4.50
2019-01-27T10:10:03.121Z,-4.40
2019-01-27T10:12:38.554Z,-4.40
2019-01-27T10:15:19.570Z,-4.40
2019-01-27T10:19:59.164Z,-4.30
2019-01-27T10:22:32.778Z,-4.30
2019-01-27T10:27:11.641Z,-4.30
2019-01-27T10:29:45.387Z,-4.30
2019-01-27T10:32:18.068Z,-4.20
2019-01-27T10:34:52.044Z,-4.20
2019-01-27T10:37:26.086Z,-4.10
2019-01-27T10:40:01.192Z,-4.00
2019-01-27T10:42:35.665Z,-4.00
2019-01-27T10:45:10.932Z,-3.80
2019-01-27T10:47:43.764Z,-3.60
2019-01-27T10:50:25.087Z,-3.60
2019-01-27T10:52:58.616Z,-3.40
2019-01-27T10:55:32.756Z,-3.40
2019-01-27T10:58:10.121Z,-3.40
2019-01-27T11:00:43.467Z,-3.40
2019-01-27T11:03:18.382Z,-3.40
2019-01-27T11:05:54.468Z,-3.40
2019-01-27T11:08:35.435Z,-3.40
2019-01-27T11:11:10.508Z,-3.50
2019-01-27T11:13:43.493Z,-3.50
2019-01-27T11:16:19.293Z,-3.50
2019-01-27T11:18:55.074Z,-3.50
2019-01-27T11:23:30.776Z,-3.40
2019-01-27T11:26:04.617Z,-3.30
2019-01-27T11:28:38.977Z,-3.30
2019-01-27T11:31:12.397Z,-3.40
2019-01-27T11:33:46.448Z,-3.30
2019-01-27T11:36:19.967Z,-3.30
2019-01-27T11:39:00.714Z,-3.30
2019-01-27T11:41:38.305Z,-3.30
2019-01-27T11:44:11.907Z,-3.20
2019-01-27T11:47:02.403Z,-3.10
2019-01-27T11:49:52.289Z,-3.00
2019-01-27T11:52:28.319Z,-2.90
2019-01-27T11:54:57.032Z,-2.90
2019-01-27T11:57:25.457Z,-2.90
2019-01-27T11:59:53.867Z,-2.80
2019-01-27T12:02:22.228Z,-2.80
2019-01-27T12:04:50.629Z,-2.70
2019-01-27T12:07:19.220Z,-2.70
2019-01-27T12:09:49.213Z,-2.70
2019-01-27T12:12:18.296Z,-2.70
2019-01-27T12:14:47.244Z,-2.70
2019-01-27T12:17:16.382Z,-2.70
2019-01-27T12:19:45.290Z,-2.70
2019-01-27T12:22:14.492Z,-2.70
2019-01-27T12:24:43.701Z,-2.70
2019-01-27T12:27:12.864Z,-2.60
2019-01-27T12:29:42.068Z,-2.50
2019-01-27T12:32:11.881Z,-2.50
2019-01-27T12:34:41.300Z,-2.50
2019-01-27T12:37:09.796Z,-2.40
2019-01-27T12:39:38.844Z,-2.50
2019-01-27T12:42:08.313Z,-2.50
2019-01-27T12:44:37.453Z,-2.40
2019-01-27T12:47:06.628Z,-2.40
2019-01-27T12:49:35.657Z,-2.50
2019-01-27T12:52:04.715Z,-2.50
2019-01-27T12:54:33.969Z,-2.50
2019-01-27T12:57:02.928Z,-2.60
2019-01-27T12:59:31.280Z,-2.60
2019-01-27T13:01:59.601Z,-2.60
2019-01-27T13:04:28.189Z,-2.70
2019-01-27T13:06:56.538Z,-2.60
2019-01-27T13:09:24.870Z,-2.70
2019-01-27T13:11:53.400Z,-2.70
2019-01-27T13:14:21.998Z,-2.70
2019-01-27T13:16:50.569Z,-2.70
2019-01-27T13:19:19.257Z,-2.70
2019-01-27T13:21:47.701Z,-2.70
2019-01-27T13:24:16.443Z,-2.80
2019-01-27T13:26:44.790Z,-2.70
2019-01-27T13:29:13.142Z,-2.70
2019-01-27T13:31:41.516Z,-2.80
2019-01-27T13:34:10.001Z,-2.80
2019-01-27T13:36:38.480Z,-2.80
2019-01-27T13:39:08.503Z,-2.80
2019-01-27T13:41:38.283Z,-2.90
2019-01-27T13:44:05.418Z,-2.90
2019-01-27T13:46:33.743Z,-3.00
2019-01-27T13:49:02.169Z,-3.00
2019-01-27T13:51:30.572Z,-3.00
2019-01-27T13:53:58.899Z,-3.00
2019-01-27T13:56:27.787Z,-3.10
2019-01-27T13:58:56.763Z,-3.10
2019-01-27T14:01:25.786Z,-3.10
2019-01-27T14:03:54.187Z,-3.20
2019-01-27T14:06:22.562Z,-3.20
2019-01-27T14:08:51.024Z,-3.20
2019-01-27T14:11:19.442Z,-3.20
2019-01-27T14:13:48.226Z,-3.20
2019-01-27T14:16:16.639Z,-3.30
2019-01-27T14:18:45.043Z,-3.30
2019-01-27T14:21:16.638Z,-3.30
2019-01-27T14:23:41.946Z,-3.30
2019-01-27T14:26:11.283Z,-3.30
2019-01-27T14:28:39.629Z,-3.30
2019-01-27T14:31:08.047Z,-3.30
2019-01-27T14:33:36.444Z,-3.30
2019-01-27T14:36:05.047Z,-3.30
2019-01-27T14:38:33.567Z,-3.20
2019-01-27T14:41:01.933Z,-3.20
2019-01-27T14:43:30.319Z,-3.20
2019-01-27T14:45:58.640Z,-3.20
2019-01-27T14:48:26.996Z,-3.20
2019-01-27T14:50:55.408Z,-3.10
2019-01-27T14:53:23.741Z,-3.10
2019-01-27T14:55:52.245Z,-3.10
2019-01-27T14:58:20.656Z,-3.10
2019-01-27T15:00:49.304Z,-3.10
2019-01-27T15:03:17.624Z,-3.10
2019-01-27T15:05:46.282Z,-3.10
2019-01-27T15:08:14.707Z,-3.00
2019-01-27T15:10:44.316Z,-3.00
2019-01-27T15:13:12.690Z,-3.00
2019-01-27T15:15:41.108Z,-3.00
2019-01-27T15:18:09.499Z,-3.00
2019-01-27T15:20:43.285Z,-3.00
2019-01-27T15:23:12.496Z,-3.00
2019-01-27T15:25:41.041Z,-3.00
2019-01-27T15:28:09.474Z,-3.00
2019-01-27T15:30:38.002Z,-3.00
2019-01-27T15:33:06.783Z,-3.00
2019-01-27T15:35:35.248Z,-3.00
2019-01-27T15:38:03.895Z,-3.00
2019-01-27T15:40:32.548Z,-3.00
2019-01-27T15:43:01.392Z,-2.90
2019-01-27T15:45:29.806Z,-2.90
2019-01-27T15:47:58.331Z,-2.90
2019-01-27T15:50:29.102Z,-2.90
2019-01-27T15:52:57.389Z,-2.90
2019-01-27T15:55:25.802Z,-2.80
2019-01-27T15:57:54.427Z,-2.80
2019-01-27T16:00:25.021Z,-2.80
2019-01-27T16:02:53.775Z,-2.80
2019-01-27T16:05:22.678Z,-2.80
2019-01-27T16:07:51.377Z,-2.70
2019-01-27T16:10:20.734Z,-2.70
2019-01-27T16:12:55.905Z,-2.70
2019-01-27T16:15:26.754Z,-2.70
2019-01-27T16:17:55.153Z,-2.60
2019-01-27T16:20:23.561Z,-2.60
2019-01-27T16:22:58.189Z,-2.60
2019-01-27T16:25:26.658Z,-2.60
2019-01-27T16:27:55.079Z,-2.60
2019-01-27T16:30:30.748Z,-2.60
2019-01-27T16:33:02.871Z,-2.60
2019-01-27T16:35:31.590Z,-2.50
2019-01-27T16:38:00.206Z,-2.50
2019-01-27T16:40:28.651Z,-2.50
2019-01-27T16:42:57.335Z,-2.50
2019-01-27T16:45:25.710Z,-2.40
2019-01-27T16:47:54.098Z,-2.40
2019-01-27T16:50:22.774Z,-2.40
2019-01-27T16:52:51.284Z,-2.30
2019-01-27T16:55:19.806Z,-2.30
2019-01-27T16:57:48.509Z,-2.30
2019-01-27T17:00:20.291Z,-2.20
2019-01-27T17:02:48.449Z,-2.20
2019-01-27T17:05:16.930Z,-2.10
2019-01-27T17:07:45.287Z,-2.10
2019-01-27T17:10:14.296Z,-2.10
2019-01-27T17:12:42.956Z,-2.00
2019-01-27T17:15:11.773Z,-2.00
2019-01-27T17:17:40.455Z,-2.00
2019-01-27T17:20:11.877Z,-1.90
2019-01-27T17:22:40.371Z,-1.90
2019-01-27T17:25:09.769Z,-1.80
2019-01-27T17:27:38.299Z,-1.70
2019-01-27T17:30:09.713Z,-1.70
2019-01-27T17:32:38.402Z,-1.60
2019-01-27T17:35:08.249Z,-1.60
2019-01-27T17:37:36.827Z,-1.60
2019-01-27T17:40:05.940Z,-1.60
2019-01-27T17:42:34.377Z,-1.60
2019-01-27T17:45:02.805Z,-1.60
2019-01-27T17:47:31.203Z,-1.50
2019-01-27T17:50:01.090Z,-1.50
2019-01-27T17:52:28.022Z,-1.50
2019-01-27T17:54:56.528Z,-1.50
2019-01-27T17:57:35.657Z,-1.40
2019-01-27T18:00:09.399Z,-1.40
2019-01-27T18:02:43.866Z,-1.40
2019-01-27T18:05:23.174Z,-1.40
2019-01-27T18:08:55.371Z,-1.40
2019-01-27T18:11:32.474Z,-1.40
2019-01-27T18:14:09.575Z,-1.40
2019-01-27T18:16:38.080Z,-1.40
2019-01-27T18:19:06.606Z,-1.30
2019-01-27T18:21:35.150Z,-1.40
2019-01-27T18:24:03.557Z,-1.40
2019-01-27T18:26:31.990Z,-1.50
2019-01-27T18:29:00.594Z,-1.50
2019-01-27T18:31:29.002Z,-1.50
2019-01-27T18:33:57.418Z,-1.50
2019-01-27T18:36:25.894Z,-1.50
2019-01-27T18:38:55.510Z,-1.50
2019-01-27T18:41:23.936Z,-1.50
2019-01-27T18:43:52.996Z,-1.50
2019-01-27T18:46:21.746Z,-1.50
2019-01-27T18:48:50.178Z,-1.50
2019-01-27T18:51:18.651Z,-1.50
2019-01-27T18:53:51.404Z,-1.50
2019-01-27T18:56:26.163Z,-1.50
2019-01-27T19:01:02.680Z,-1.50
2019-01-27T19:03:36.267Z,-1.50
2019-01-27T19:06:16.931Z,-1.50
2019-01-27T19:08:52.528Z,-1.50
2019-01-27T19:11:30.236Z,-1.50
2019-01-27T19:14:04.219Z,-1.50
2019-01-27T19:16:36.954Z,-1.50
2019-01-27T19:19:09.942Z,-1.50
2019-01-27T19:21:46.685Z,-1.50
2019-01-27T19:24:22.553Z,-1.50
2019-01-27T19:27:01.553Z,-1.60
2019-01-27T19:29:38.213Z,-1.50
2019-01-27T19:32:17.971Z,-1.50
2019-01-27T19:34:55.869Z,-1.50
2019-01-27T19:37:30.582Z,-1.50
2019-01-27T19:40:10.092Z,-1.50
2019-01-27T19:42:43.917Z,-1.50
2019-01-27T19:45:19.487Z,-1.50
2019-01-27T19:48:26.175Z,-1.40
2019-01-27T19:51:00.017Z,-1.50
2019-01-27T19:53:33.490Z,-1.50
2019-01-27T19:56:15.154Z,-1.50
2019-01-27T19:58:52.856Z,-1.50
2019-01-27T20:01:35.346Z,-1.40
2019-01-27T20:04:08.376Z,-1.40
2019-01-27T20:06:43.205Z,-1.40
2019-01-27T20:09:16.927Z,-1.40
2019-01-27T20:11:50.662Z,-1.40
2019-01-27T20:14:24.689Z,-1.40
2019-01-27T20:17:14.568Z,-1.50
2019-01-27T20:19:50.419Z,-1.50
2019-01-27T20:22:55.698Z,-1.50
2019-01-27T20:25:34.058Z,-1.50
2019-01-27T20:29:10.985Z,-1.40
2019-01-27T20:31:44.605Z,-1.40
2019-01-27T20:34:23.370Z,-1.40
2019-01-27T20:37:06.495Z,-1.40
2019-01-27T20:39:42.733Z,-1.40
2019-01-27T20:42:15.605Z,-1.40
2019-01-27T20:44:51.712Z,-1.40
2019-01-27T20:48:27.704Z,-1.40
2019-01-27T20:51:01.229Z,-1.40
2019-01-27T20:53:35.844Z,-1.40
2019-01-27T20:56:09.431Z,-1.40
2019-01-27T20:58:49.970Z,-1.30
2019-01-27T21:01:23.518Z,-1.30
2019-01-27T21:03:56.637Z,-1.40
2019-01-27T21:06:33.160Z,-1.40
2019-01-27T21:09:06.563Z,-1.40
2019-01-27T21:11:40.988Z,-1.40
2019-01-27T21:14:18.600Z,-1.40
2019-01-27T21:16:57.279Z,-1.40
2019-01-27T21:19:32.802Z,-1.40
2019-01-27T21:22:01.266Z,-1.40
2019-01-27T21:24:31.166Z,-1.40
2019-01-27T21:26:58.324Z,-1.40
2019-01-27T21:29:26.675Z,-1.40
2019-01-27T21:31:55.024Z,-1.40
2019-01-27T21:34:23.355Z,-1.40
2019-01-27T21:36:51.663Z,-1.40
2019-01-27T21:39:20.008Z,-1.40
2019-01-27T21:41:48.333Z,-1.40
2019-01-27T21:44:16.650Z,-1.40
2019-01-27T21:46:44.979Z,-1.40
2019-01-27T21:49:13.336Z,-1.40
2019-01-27T21:51:41.793Z,-1.40
2019-01-27T21:54:10.140Z,-1.40
2019-01-27T21:56:38.576Z,-1.40
2019-01-27T21:59:06.929Z,-1.40
2019-01-27T22:01:35.322Z,-1.40
2019-01-27T22:04:03.685Z,-1.40
2019-01-27T22:06:33.930Z,-1.40
2019-01-27T22:09:00.676Z,-1.40
2019-01-27T22:11:29.037Z,-1.40
2019-01-27T22:13:57.500Z,-1.40
2019-01-27T22:16:25.883Z,-1.40
2019-01-27T22:18:54.404Z,-1.40
2019-01-27T22:21:22.817Z,-1.30
2019-01-27T22:23:51.162Z,-1.30
2019-01-27T22:26:19.455Z,-1.30
2019-01-27T22:28:47.807Z,-1.30
2019-01-27T22:31:16.332Z,-1.30
2019-01-27T22:33:44.778Z,-1.30
2019-01-27T22:36:13.106Z,-1.30
2019-01-27T22:38:41.586Z,-1.30
2019-01-27T22:41:10.270Z,-1.30
2019-01-27T22:43:38.952Z,-1.30
2019-01-27T22:46:07.332Z,-1.30
2019-01-27T22:48:35.706Z,-1.30
2019-01-27T22:51:04.110Z,-1.30
2019-01-27T22:53:32.463Z,-1.30
2019-01-27T22:56:00.842Z,-1.30
2019-01-27T22:58:29.181Z,-1.30
2019-01-27T23:01:02.512Z,-1.30
2019-01-27T23:03:33.593Z,-1.30
2019-01-27T23:06:02.030Z,-1.30
2019-01-27T23:08:30.327Z,-1.30
2019-01-27T23:10:58.654Z,-1.30
2019-01-27T23:13:27.086Z,-1.20
2019-01-27T23:15:55.437Z,-1.20
2019-01-27T23:18:23.871Z,-1.20
2019-01-27T23:20:52.366Z,-1.20
2019-01-27T23:23:20.968Z,-1.20
2019-01-27T23:25:50.484Z,-1.20
2019-01-27T23:28:18.329Z,-1.20
2019-01-27T23:30:46.727Z,-1.20
2019-01-27T23:33:16.337Z,-1.20
2019-01-27T23:35:44.671Z,-1.20
2019-01-27T23:38:13.053Z,-1.20
2019-01-27T23:40:41.729Z,-1.20
2019-01-27T23:43:10.090Z,-1.10
2019-01-27T23:45:38.527Z,-1.10
2019-01-27T23:48:06.893Z,-1.10
2019-01-27T23:50:35.296Z,-1.10
2019-01-27T23:53:03.734Z,-1.10
2019-01-27T23:55:32.103Z,-1.10
2019-01-27T23:58:00.600Z,-1.20
